createdAt,value
2018-07-16T00:01:22.991Z,25.03
2018-07-16T00:04:03.625Z,26.33
2018-07-16T00:06:44.663Z,26.23
2018-07-16T00:09:25.933Z,26.60
2018-07-16T00:12:07.069Z,25.67
2018-07-16T00:14:48.447Z,26.00
2018-07-16T00:17:29.821Z,27.37
2018-07-16T00:20:11.175Z,28.03
2018-07-16T00:22:51.890Z,27.60
2018-07-16T00:25:33.251Z,29.13
2018-07-16T00:28:14.739Z,26.83
2018-07-16T00:30:55.774Z,26.77
2018-07-16T00:33:37.167Z,28.27
2018-07-16T00:36:17.743Z,30.30
2018-07-16T00:38:58.478Z,29.20
2018-07-16T00:41:39.538Z,26.83
2018-07-16T00:44:20.320Z,26.40
2018-07-16T00:47:01.628Z,25.67
2018-07-16T00:49:42.640Z,28.53
2018-07-16T00:52:23.779Z,27.13
2018-07-16T00:55:04.510Z,28.23
2018-07-16T00:57:45.867Z,26.70
2018-07-16T01:00:26.851Z,28.87
2018-07-16T01:03:08.059Z,27.07
2018-07-16T01:05:49.152Z,29.13
2018-07-16T01:08:30.240Z,28.03
2018-07-16T01:11:11.196Z,30.27
2018-07-16T01:13:52.373Z,28.20
2018-07-16T01:16:33.267Z,29.93
2018-07-16T01:19:14.681Z,30.33
2018-07-16T01:21:55.917Z,31.10
2018-07-16T01:24:37.261Z,33.20
2018-07-16T01:27:18.047Z,33.13
2018-07-16T01:29:59.255Z,35.40
2018-07-16T01:32:40.289Z,33.30
2018-07-16T01:35:21.723Z,35.23
2018-07-16T01:38:03.328Z,36.50
2018-07-16T01:40:43.912Z,35.30
2018-07-16T01:43:25.064Z,34.47
2018-07-16T01:46:06.019Z,36.80
2018-07-16T01:48:46.761Z,36.23
2018-07-16T01:51:27.710Z,37.60
2018-07-16T01:54:08.811Z,39.13
2018-07-16T01:56:50.024Z,35.63
2018-07-16T01:59:30.985Z,33.93
2018-07-16T02:02:12.043Z,33.80
2018-07-16T02:04:53.317Z,32.57
2018-07-16T02:07:34.330Z,30.97
2018-07-16T02:10:15.620Z,30.97
2018-07-16T02:12:56.532Z,31.30
2018-07-16T02:15:37.820Z,30.57
2018-07-16T02:18:18.576Z,28.67
2018-07-16T02:20:59.219Z,29.47
2018-07-16T02:23:40.588Z,27.90
2018-07-16T02:26:21.967Z,27.10
2018-07-16T02:29:02.780Z,26.23
2018-07-16T02:31:44.327Z,26.13
2018-07-16T02:34:25.180Z,25.97
2018-07-16T02:37:06.017Z,28.40
2018-07-16T02:39:47.301Z,28.00
2018-07-16T02:42:27.872Z,27.70
2018-07-16T02:45:09.090Z,30.40
2018-07-16T02:47:50.415Z,27.03
2018-07-16T02:50:31.908Z,26.90
2018-07-16T02:53:13.148Z,27.73
2018-07-16T02:55:53.909Z,29.03
2018-07-16T02:58:34.401Z,27.87
2018-07-16T03:01:15.555Z,29.43
2018-07-16T03:03:56.642Z,28.40
2018-07-16T03:06:37.425Z,27.13
2018-07-16T03:09:18.328Z,29.03
2018-07-16T03:11:59.238Z,28.73
2018-07-16T03:14:40.263Z,26.97
2018-07-16T03:17:21.324Z,27.57
2018-07-16T03:20:02.626Z,26.73
2018-07-16T03:22:43.486Z,28.07
2018-07-16T03:25:24.664Z,28.10
2018-07-16T03:28:05.548Z,27.17
2018-07-16T03:30:46.696Z,25.03
2018-07-16T03:33:28.039Z,27.73
2018-07-16T03:36:08.637Z,28.47
2018-07-16T03:38:49.828Z,26.70
2018-07-16T03:41:30.518Z,29.40
2018-07-16T03:44:11.298Z,27.87
2018-07-16T03:46:52.116Z,26.50
2018-07-16T03:49:33.259Z,26.60
2018-07-16T03:52:14.193Z,25.73
2018-07-16T03:54:55.464Z,24.00
2018-07-16T03:57:36.401Z,24.27
2018-07-16T04:00:17.751Z,21.03
2018-07-16T04:02:58.300Z,21.87
2018-07-16T04:05:39.544Z,24.30
2018-07-16T04:08:20.315Z,27.37
2018-07-16T04:11:01.325Z,29.30
2018-07-16T04:13:42.308Z,30.00
2018-07-16T04:16:23.260Z,30.30
2018-07-16T04:19:04.084Z,31.47
2018-07-16T04:21:45.530Z,30.87
2018-07-16T04:24:26.347Z,30.73
2018-07-16T04:27:07.623Z,32.87
2018-07-16T04:29:49.166Z,29.23
2018-07-16T04:32:30.267Z,31.33
2018-07-16T04:35:11.070Z,27.47
2018-07-16T04:37:51.957Z,26.80
2018-07-16T04:40:32.744Z,30.10
2018-07-16T04:43:14.091Z,29.83
2018-07-16T04:45:55.247Z,28.50
2018-07-16T04:48:35.903Z,29.90
2018-07-16T04:51:17.016Z,30.20
2018-07-16T04:53:58.095Z,30.43
2018-07-16T04:56:39.346Z,29.47
2018-07-16T04:59:20.883Z,32.20
2018-07-16T05:02:01.543Z,30.87
2018-07-16T05:04:42.703Z,28.30
2018-07-16T05:07:23.956Z,30.47
2018-07-16T05:10:05.539Z,30.70
2018-07-16T05:12:46.429Z,27.50
2018-07-16T05:15:27.643Z,29.50
2018-07-16T05:18:08.724Z,32.47
2018-07-16T05:20:49.455Z,30.10
2018-07-16T05:23:30.096Z,29.73
2018-07-16T05:26:11.310Z,32.00
2018-07-16T05:28:52.016Z,29.97
2018-07-16T05:31:33.493Z,27.13
2018-07-16T05:34:14.489Z,26.07
2018-07-16T05:37:02.096Z,23.90
2018-07-16T05:39:42.767Z,27.40
2018-07-16T05:42:24.205Z,26.50
2018-07-16T05:45:05.655Z,26.70
2018-07-16T05:47:46.830Z,27.57
2018-07-16T05:50:28.061Z,26.50
2018-07-16T05:53:08.969Z,25.83
2018-07-16T05:55:50.224Z,25.97
2018-07-16T05:58:31.113Z,26.03
2018-07-16T06:01:12.239Z,24.67
2018-07-16T06:03:52.875Z,23.03
2018-07-16T06:06:33.783Z,22.67
2018-07-16T06:09:14.929Z,22.50
2018-07-16T06:11:56.170Z,21.00
2018-07-16T06:14:37.601Z,21.70
2018-07-16T06:17:18.589Z,22.20
2018-07-16T06:19:59.100Z,22.60
2018-07-16T06:22:41.356Z,24.67
2018-07-16T06:25:22.051Z,22.03
2018-07-16T06:28:02.875Z,21.80
2018-07-16T06:30:44.213Z,22.90
2018-07-16T06:33:24.908Z,24.47
2018-07-16T06:36:06.244Z,30.00
2018-07-16T06:38:47.080Z,29.70
2018-07-16T06:41:28.098Z,28.00
2018-07-16T06:44:08.633Z,33.77
2018-07-16T06:46:49.831Z,40.60
2018-07-16T06:49:31.035Z,39.13
2018-07-16T06:52:12.008Z,48.73
2018-07-16T06:54:53.228Z,47.33
2018-07-16T06:57:34.307Z,33.43
2018-07-16T07:00:14.883Z,31.90
2018-07-16T12:23:14.143Z,6.07
2018-07-16T12:25:55.266Z,4.80
2018-07-16T12:28:35.900Z,4.80
2018-07-16T12:31:16.696Z,5.27
2018-07-16T12:33:57.485Z,6.17
2018-07-16T12:36:38.353Z,5.87
2018-07-16T12:39:19.092Z,6.17
2018-07-16T12:41:59.833Z,6.37
2018-07-16T12:44:40.374Z,6.83
2018-07-16T12:47:21.288Z,6.47
2018-07-16T12:50:01.945Z,6.57
2018-07-16T12:52:42.636Z,6.17
2018-07-16T12:55:23.259Z,6.43
2018-07-16T12:58:04.567Z,6.80
2018-07-16T13:00:46.050Z,6.50
2018-07-16T13:03:27.069Z,6.57
2018-07-16T13:06:07.936Z,6.30
2018-07-16T13:08:48.677Z,6.67
2018-07-16T13:11:29.637Z,6.50
2018-07-16T13:14:10.541Z,6.37
2018-07-16T13:16:51.179Z,7.00
2018-07-16T13:19:31.961Z,6.50
2018-07-16T13:22:12.830Z,6.63
2018-07-16T13:24:53.761Z,6.40
2018-07-16T13:27:34.647Z,6.00
2018-07-16T13:30:15.569Z,6.70
2018-07-16T13:32:56.264Z,6.17
2018-07-16T13:35:37.057Z,6.13
2018-07-16T13:38:17.585Z,6.60
2018-07-16T13:40:58.189Z,6.37
2018-07-16T13:43:38.765Z,6.37
2018-07-16T13:46:19.668Z,6.87
2018-07-16T13:49:00.293Z,6.37
2018-07-16T13:51:41.308Z,7.50
2018-07-16T13:54:22.785Z,6.53
2018-07-16T13:57:03.584Z,5.63
2018-07-16T13:59:44.124Z,7.13
2018-07-16T14:02:24.893Z,6.77
2018-07-16T14:05:05.539Z,5.80
2018-07-16T14:07:46.392Z,6.10
2018-07-16T14:10:27.150Z,5.53
2018-07-16T14:13:08.209Z,6.47
2018-07-16T14:15:48.720Z,6.30
2018-07-16T14:18:29.919Z,6.30
2018-07-16T14:21:11.293Z,6.10
2018-07-16T14:23:52.185Z,7.60
2018-07-16T14:26:32.989Z,6.67
2018-07-16T14:29:13.844Z,6.37
2018-07-16T14:31:54.577Z,5.93
2018-07-16T14:34:35.204Z,5.90
2018-07-16T14:37:15.796Z,6.23
2018-07-16T14:39:56.465Z,5.83
2018-07-16T14:42:37.264Z,7.37
2018-07-16T14:45:18.811Z,7.00
2018-07-16T14:47:59.625Z,7.10
2018-07-16T14:50:40.641Z,8.60
2018-07-16T14:53:21.224Z,7.60
2018-07-16T14:56:01.852Z,8.23
2018-07-16T14:58:42.449Z,8.63
2018-07-16T15:01:23.154Z,8.30
2018-07-16T15:04:04.040Z,8.57
2018-07-16T15:06:45.437Z,9.13
2018-07-16T15:09:26.154Z,9.10
2018-07-16T15:12:07.251Z,9.20
2018-07-16T15:14:48.117Z,10.67
2018-07-16T15:17:28.878Z,9.03
2018-07-16T15:20:10.100Z,11.70
2018-07-16T15:22:50.761Z,11.30
2018-07-16T15:25:31.886Z,11.60
2018-07-16T15:28:12.492Z,11.70
2018-07-16T15:30:53.479Z,11.07
2018-07-16T15:33:34.460Z,11.07
2018-07-16T15:36:15.284Z,10.57
2018-07-16T15:38:56.010Z,10.47
2018-07-16T15:41:37.359Z,10.00
2018-07-16T15:44:18.785Z,9.80
2018-07-16T15:46:59.922Z,8.37
2018-07-16T15:49:41.272Z,9.50
2018-07-16T15:52:22.527Z,9.17
2018-07-16T15:55:03.725Z,8.67
2018-07-16T15:57:44.393Z,9.30
2018-07-16T16:00:25.196Z,9.30
2018-07-16T16:03:06.257Z,8.80
2018-07-16T16:05:47.288Z,8.90
2018-07-16T16:08:28.311Z,9.80
2018-07-16T16:11:09.852Z,8.77
2018-07-16T16:13:51.247Z,7.93
2018-07-16T16:16:32.507Z,9.30
2018-07-16T16:19:13.378Z,8.60
2018-07-16T16:21:54.702Z,9.53
2018-07-16T16:24:35.743Z,9.40
2018-07-16T16:27:16.778Z,10.00
2018-07-16T16:29:58.288Z,9.47
2018-07-16T16:32:39.231Z,9.60
2018-07-16T16:35:20.112Z,8.83
2018-07-16T16:38:01.798Z,9.27
2018-07-16T16:40:42.379Z,10.93
2018-07-16T16:43:23.553Z,9.83
2018-07-16T16:46:04.677Z,10.93
2018-07-16T16:48:45.576Z,11.97
2018-07-16T16:51:27.118Z,9.17
2018-07-16T16:54:07.746Z,10.20
2018-07-16T16:56:48.696Z,11.17
2018-07-16T16:59:29.605Z,10.67
2018-07-16T17:02:10.763Z,12.47
2018-07-16T17:04:51.972Z,12.20
2018-07-16T17:07:33.038Z,11.37
2018-07-16T17:10:14.404Z,12.10
2018-07-16T17:12:55.074Z,11.53
2018-07-16T17:15:36.028Z,9.70
2018-07-16T17:18:16.964Z,10.67
2018-07-16T17:20:58.233Z,10.07
2018-07-16T17:23:39.823Z,11.00
2018-07-16T17:26:20.688Z,9.33
2018-07-16T17:29:01.771Z,11.80
2018-07-16T17:31:43.008Z,10.13
2018-07-16T17:34:23.951Z,11.03
2018-07-16T17:37:05.273Z,12.33
2018-07-16T17:39:46.721Z,10.23
2018-07-16T17:42:27.552Z,12.27
2018-07-16T17:45:08.953Z,10.73
2018-07-16T17:47:50.242Z,9.87
2018-07-16T17:50:30.857Z,13.00
2018-07-16T17:53:11.733Z,12.80
2018-07-16T17:55:52.972Z,12.80
2018-07-16T17:58:34.073Z,13.43
2018-07-16T18:01:14.903Z,13.50
2018-07-16T18:03:55.978Z,13.33
2018-07-16T18:06:36.887Z,13.20
2018-07-16T18:09:17.359Z,13.30
2018-07-16T18:11:58.428Z,14.33
2018-07-16T18:14:39.605Z,13.17
2018-07-16T18:17:20.760Z,12.93
2018-07-16T18:20:01.996Z,12.20
2018-07-16T18:22:43.096Z,12.70
2018-07-16T18:25:24.399Z,11.73
2018-07-16T18:28:05.677Z,12.40
2018-07-16T18:30:47.151Z,12.30
2018-07-16T18:33:28.278Z,11.73
2018-07-16T18:36:09.537Z,12.47
2018-07-16T18:38:50.675Z,13.63
2018-07-16T18:41:31.639Z,14.47
2018-07-16T18:44:12.960Z,15.53
2018-07-16T18:46:54.108Z,13.40
2018-07-16T18:49:34.975Z,15.13
2018-07-16T18:52:15.991Z,15.33
2018-07-16T18:54:57.227Z,14.80
2018-07-16T18:57:38.200Z,13.77
2018-07-16T19:00:18.887Z,13.43
2018-07-16T19:03:00.030Z,15.20
2018-07-16T19:05:40.822Z,13.93
2018-07-16T19:08:21.818Z,13.40
2018-07-16T19:11:02.958Z,12.50
2018-07-16T19:13:43.952Z,12.83
2018-07-16T19:16:25.343Z,13.37
2018-07-16T19:19:06.692Z,12.90
2018-07-16T19:21:47.655Z,12.73
2018-07-16T19:24:28.926Z,12.70
2018-07-16T19:27:10.223Z,13.83
2018-07-16T19:29:51.243Z,11.90
2018-07-16T19:32:32.693Z,12.30
2018-07-16T19:35:13.624Z,12.17
2018-07-16T19:37:55.168Z,11.93
2018-07-16T19:40:36.212Z,12.30
2018-07-16T19:43:16.987Z,13.27
2018-07-16T19:45:58.067Z,11.60
2018-07-16T19:48:39.377Z,11.70
2018-07-16T19:51:20.397Z,11.70
2018-07-16T19:54:01.289Z,12.50
2018-07-16T19:56:42.716Z,11.40
2018-07-16T19:59:23.821Z,12.30
2018-07-16T20:02:04.612Z,12.67
2018-07-16T20:04:45.568Z,11.90
2018-07-16T20:07:26.533Z,10.60
2018-07-16T20:10:07.724Z,11.80
2018-07-16T20:12:48.371Z,11.87
2018-07-16T20:15:29.394Z,11.07
2018-07-16T20:18:10.490Z,11.37
2018-07-16T20:20:53.229Z,11.37
2018-07-16T20:23:34.516Z,9.63
2018-07-16T20:26:15.659Z,11.50
2018-07-16T20:28:57.165Z,11.60
2018-07-16T20:31:38.277Z,10.97
2018-07-16T20:34:18.813Z,12.70
2018-07-16T20:36:59.731Z,11.63
2018-07-16T20:39:40.698Z,10.97
2018-07-16T20:42:21.623Z,10.20
2018-07-16T20:45:02.848Z,11.00
2018-07-16T20:47:43.902Z,12.23
2018-07-16T20:50:25.107Z,14.63
2018-07-16T20:53:05.733Z,15.20
2018-07-16T20:55:46.666Z,13.33
2018-07-16T20:58:27.284Z,12.60
2018-07-16T21:01:08.986Z,13.00
2018-07-16T21:03:50.396Z,14.00
2018-07-16T21:06:31.255Z,12.53
2018-07-16T21:09:12.617Z,10.97
2018-07-16T21:11:53.873Z,10.37
2018-07-16T21:14:35.259Z,8.97
2018-07-16T21:17:16.385Z,7.80
2018-07-16T21:19:57.332Z,10.20
2018-07-16T21:22:38.327Z,13.43
2018-07-16T21:25:19.535Z,12.77
2018-07-16T21:28:00.454Z,15.37
2018-07-16T21:30:41.359Z,18.00
2018-07-16T21:33:22.487Z,16.27
2018-07-16T21:36:03.613Z,15.03
2018-07-16T21:38:44.734Z,15.73
2018-07-16T21:41:25.652Z,16.40
2018-07-16T21:44:06.965Z,14.77
2018-07-16T21:46:48.254Z,14.37
2018-07-16T21:49:29.155Z,13.13
2018-07-16T21:52:10.020Z,13.53
2018-07-16T21:54:51.042Z,13.07
2018-07-16T21:57:31.983Z,14.20
2018-07-16T22:00:12.473Z,12.27
2018-07-16T22:02:53.709Z,10.70
2018-07-16T22:05:34.601Z,12.83
2018-07-16T22:08:15.706Z,12.37
2018-07-16T22:10:56.924Z,12.03
2018-07-16T22:13:38.426Z,12.90
2018-07-16T22:16:19.499Z,10.77
2018-07-16T22:19:00.412Z,12.00
2018-07-16T22:21:41.317Z,10.70
2018-07-16T22:24:22.158Z,11.57
2018-07-16T22:27:03.104Z,12.73
2018-07-16T22:29:44.639Z,15.93
2018-07-16T22:32:25.877Z,16.27
2018-07-16T22:35:06.904Z,16.00
2018-07-16T22:37:47.924Z,17.30
2018-07-16T22:40:29.075Z,16.70
2018-07-16T22:43:09.888Z,16.33
2018-07-16T22:45:50.607Z,15.87
2018-07-16T22:48:31.615Z,15.77
2018-07-16T22:51:12.551Z,14.30
2018-07-16T22:53:53.531Z,13.03
2018-07-16T22:56:34.686Z,16.80
2018-07-16T22:59:15.762Z,18.07
2018-07-16T23:01:57.024Z,19.43
2018-07-16T23:04:38.594Z,19.77
2018-07-16T23:07:19.965Z,20.77
2018-07-16T23:10:00.684Z,20.47
2018-07-16T23:12:41.348Z,23.00
2018-07-16T23:15:22.263Z,18.87
2018-07-16T23:18:03.363Z,20.73
2018-07-16T23:20:44.069Z,19.37
2018-07-16T23:23:24.944Z,20.50
2018-07-16T23:26:06.022Z,22.10
2018-07-16T23:28:47.477Z,21.40
2018-07-16T23:31:28.596Z,22.63
2018-07-16T23:34:09.350Z,21.27
2018-07-16T23:36:50.187Z,21.40
2018-07-16T23:39:31.206Z,19.97
2018-07-16T23:42:11.975Z,21.60
2018-07-16T23:44:53.117Z,23.43
2018-07-16T23:47:34.044Z,23.60
2018-07-16T23:50:15.301Z,26.07
2018-07-16T23:52:56.222Z,24.43
2018-07-16T23:55:37.138Z,23.13
2018-07-16T23:58:17.965Z,24.60
